Time;durP1;ratioP1;P1;durP2;ratioP2;P2;SDS_P1;SDS_P2;PMS_P1;PMS_P2;Temp;Humidity;BMP_temperature;BMP_pressure;BME280_temperature;BME280_humidity;BME280_pressure;Samples;Min_cycle;Max_cycle;Signal;HPM_P1;HPM_P2
2021/06/13 00:02:08;;;;;;;2.20;2.00;;;;;;;16.61;69.16;98841.22;5111693;28;20024;-85
2021/06/13 00:04:33;;;;;;;2.88;1.92;;;;;;;16.60;69.44;98840.44;5111819;28;20028;-85
2021/06/13 00:06:59;;;;;;;2.35;2.08;;;;;;;16.59;69.45;98844.25;5112414;28;20030;-85
2021/06/13 00:09:25;;;;;;;2.70;1.83;;;;;;;16.60;69.46;98847.72;5114272;28;20031;-86
2021/06/13 00:11:50;;;;;;;1.98;1.88;;;;;;;16.57;69.22;98834.88;5111861;28;20028;-86
2021/06/13 00:14:17;;;;;;;2.20;2.05;;;;;;;16.57;69.22;98851.06;5111553;28;20046;-85
2021/06/13 00:16:43;;;;;;;3.70;3.40;;;;;;;16.54;69.27;98849.00;5111666;28;20035;-86
2021/06/13 00:19:09;;;;;;;2.20;2.00;;;;;;;16.53;69.17;98850.91;5112885;27;20035;-85
2021/06/13 00:21:34;;;;;;;2.08;1.98;;;;;;;16.52;69.33;98843.94;5111701;28;20080;-85
2021/06/13 00:24:00;;;;;;;3.15;2.58;;;;;;;16.50;69.08;98846.16;5111156;28;20031;-85
2021/06/13 00:26:25;;;;;;;5.68;2.30;;;;;;;16.46;69.51;98840.59;5111242;28;20032;-85
2021/06/13 00:28:52;;;;;;;2.33;2.13;;;;;;;16.44;69.16;98844.72;5111372;28;20031;-85
2021/06/13 00:31:18;;;;;;;3.05;2.20;;;;;;;16.39;69.63;98829.50;5111370;28;20427;-85
2021/06/13 00:33:44;;;;;;;2.92;2.35;;;;;;;16.33;69.70;98831.59;5111403;28;20024;-84
2021/06/13 00:36:09;;;;;;;2.30;2.10;;;;;;;16.29;69.83;98825.22;5111116;28;20034;-85
2021/06/13 00:38:35;;;;;;;2.38;2.13;;;;;;;16.28;69.91;98830.94;5111340;28;20027;-85
2021/06/13 00:41:01;;;;;;;3.88;2.30;;;;;;;16.25;69.74;98826.19;5111218;28;20031;-85
2021/06/13 00:43:26;;;;;;;4.22;2.67;;;;;;;16.23;70.01;98826.50;5111000;28;20027;-86
2021/06/13 00:45:52;;;;;;;2.42;1.90;;;;;;;16.22;69.88;98821.44;5111120;28;20034;-85
2021/06/13 00:48:17;;;;;;;2.90;2.15;;;;;;;16.24;69.92;98827.31;5110955;28;20024;-85
2021/06/13 00:50:47;;;;;;;2.10;2.00;;;;;;;16.23;69.83;98825.72;5111103;28;20035;-85
2021/06/13 00:53:13;;;;;;;2.63;1.92;;;;;;;16.23;70.20;98823.03;5110758;28;20479;-86
2021/06/13 00:55:40;;;;;;;2.13;1.80;;;;;;;16.24;69.92;98813.81;5110990;28;20031;-85
2021/06/13 00:58:06;;;;;;;2.28;1.75;;;;;;;16.23;69.58;98815.69;5110831;28;20055;-86
2021/06/13 01:00:33;;;;;;;3.25;1.98;;;;;;;16.21;69.52;98812.56;5110865;28;20020;-86
2021/06/13 01:02:58;;;;;;;1.85;1.65;;;;;;;16.21;69.84;98809.84;5110907;28;20398;-85
2021/06/13 01:05:25;;;;;;;2.95;2.17;;;;;;;16.21;69.70;98812.56;5110477;28;20024;-86
2021/06/13 01:07:57;;;;;;;2.10;1.95;;;;;;;16.20;69.70;98818.25;5111787;28;20032;-86
2021/06/13 01:10:47;;;;;;;2.20;1.85;;;;;;;16.20;69.74;98810.16;5110005;28;20023;-85
2021/06/13 01:13:39;;;;;;;3.22;1.98;;;;;;;16.17;69.80;98806.19;5110410;28;20042;-85
2021/06/13 01:16:13;;;;;;;1.75;1.65;;;;;;;16.14;69.67;98801.44;5110665;28;20023;-85
2021/06/13 01:18:47;;;;;;;2.47;1.73;;;;;;;16.15;69.76;98806.50;5110726;28;20047;-85
2021/06/13 01:21:24;;;;;;;2.58;1.77;;;;;;;16.16;69.70;98799.19;5110031;28;20030;-85
2021/06/13 01:24:16;;;;;;;2.45;2.20;;;;;;;16.14;69.95;98801.44;5110238;28;20100;-85
2021/06/13 01:27:02;;;;;;;2.38;2.17;;;;;;;16.13;69.90;98800.63;5110406;28;20024;-85
2021/06/13 01:29:32;;;;;;;2.05;1.88;;;;;;;16.10;69.70;98798.59;5111697;28;20024;-85
2021/06/13 01:32:03;;;;;;;1.90;1.77;;;;;;;16.09;69.88;98804.31;5110436;28;20115;-85
2021/06/13 01:34:35;;;;;;;3.90;2.05;;;;;;;16.08;69.48;98800.03;5110135;28;20462;-85
2021/06/13 01:37:06;;;;;;;4.03;2.00;;;;;;;16.06;69.55;98803.03;5110036;28;20080;-85
2021/06/13 01:39:33;;;;;;;2.50;2.30;;;;;;;16.02;69.44;98794.00;5110140;28;20073;-85
2021/06/13 01:42:00;;;;;;;2.35;2.15;;;;;;;16.00;69.55;98801.59;5110331;28;20474;-85
2021/06/13 01:44:27;;;;;;;1.95;1.80;;;;;;;15.96;69.32;98797.97;5109995;28;20506;-86
2021/06/13 01:46:54;;;;;;;3.13;1.83;;;;;;;15.93;68.98;98802.09;5110276;28;20016;-85
2021/06/13 01:49:21;;;;;;;2.27;2.00;;;;;;;15.91;69.13;98806.22;5109963;28;20405;-85
2021/06/13 01:51:47;;;;;;;5.63;2.03;;;;;;;15.89;69.27;98805.72;5110412;28;20035;-86
2021/06/13 01:54:14;;;;;;;1.83;1.73;;;;;;;15.86;69.31;98809.06;5109962;28;20028;-85
2021/06/13 01:56:45;;;;;;;2.33;2.00;;;;;;;15.84;69.59;98801.28;5110218;28;20039;-86
2021/06/13 01:59:13;;;;;;;2.25;2.05;;;;;;;15.77;69.64;98796.34;5109929;28;20059;-85
2021/06/13 02:01:39;;;;;;;2.25;1.90;;;;;;;15.77;69.71;98793.66;5110117;28;20042;-85
2021/06/13 02:04:05;;;;;;;2.92;2.42;;;;;;;15.75;69.41;98792.38;5110053;28;20118;-86
2021/06/13 02:06:34;;;;;;;4.10;2.17;;;;;;;15.69;69.45;98795.22;5109827;28;20043;-85
2021/06/13 02:09:03;;;;;;;1.98;1.80;;;;;;;15.66;69.61;98793.16;5110070;28;20016;-85
2021/06/13 02:11:30;;;;;;;2.25;1.75;;;;;;;15.63;69.47;98793.78;5109980;28;20513;-85
2021/06/13 02:13:57;;;;;;;2.25;1.95;;;;;;;15.61;69.41;98796.03;5110063;28;20031;-84
2021/06/13 02:16:23;;;;;;;2.95;2.05;;;;;;;15.57;69.79;98796.97;5109758;28;20562;-85
2021/06/13 02:18:50;;;;;;;3.42;2.00;;;;;;;15.55;69.70;98807.25;5110143;28;20422;-85
2021/06/13 02:21:18;;;;;;;5.00;1.90;;;;;;;15.51;69.47;98805.19;5109734;28;20019;-85
2021/06/13 02:23:44;;;;;;;4.32;1.73;;;;;;;15.48;69.71;98808.50;5112299;28;20080;-85
2021/06/13 02:26:10;;;;;;;5.32;2.00;;;;;;;15.44;69.86;98804.88;5113810;28;20031;-85
2021/06/13 02:28:41;;;;;;;1.90;1.77;;;;;;;15.40;69.66;98801.19;5113589;28;20030;-85
2021/06/13 02:31:07;;;;;;;2.60;1.88;;;;;;;15.36;69.97;98800.25;5113674;28;20085;-85
2021/06/13 02:33:38;;;;;;;3.45;2.08;;;;;;;15.32;70.19;98796.59;5114576;28;20047;-86
2021/06/13 02:36:04;;;;;;;3.13;2.15;;;;;;;15.29;70.04;98795.31;5115419;28;20031;-85
2021/06/13 02:38:30;;;;;;;4.30;2.10;;;;;;;15.29;70.75;98799.91;5113499;28;20047;-85
2021/06/13 02:40:55;;;;;;;2.15;1.88;;;;;;;15.26;70.54;98793.25;5113627;28;20073;-85
2021/06/13 02:43:21;;;;;;;4.97;3.22;;;;;;;15.28;70.77;98798.31;5113253;28;20501;-85
2021/06/13 02:45:48;;;;;;;5.50;1.63;;;;;;;15.25;70.72;98796.28;5113469;28;20030;-85
2021/06/13 02:48:15;;;;;;;2.97;2.10;;;;;;;15.27;70.43;98794.03;5113358;28;20136;-86
2021/06/13 02:50:41;;;;;;;3.55;1.95;;;;;;;15.22;70.84;98789.56;5113447;28;20473;-85
2021/06/13 02:53:43;;;;;;;3.45;2.40;;;;;;;15.26;70.79;98787.06;5112956;28;20063;-86
2021/06/13 02:56:24;;;;;;;3.63;2.70;;;;;;;15.23;70.88;98804.63;5114493;27;20125;-85
2021/06/13 02:58:59;;;;;;;2.00;1.90;;;;;;;15.24;70.92;98802.75;5113180;28;20493;-85
2021/06/13 03:01:25;;;;;;;4.43;2.40;;;;;;;15.28;71.31;98790.25;5112945;28;20073;-85
2021/06/13 03:03:52;;;;;;;3.53;2.40;;;;;;;15.45;71.17;98797.56;5113030;28;20020;-85
2021/06/13 03:06:19;;;;;;;3.60;2.15;;;;;;;15.69;70.74;98794.44;5114423;28;20402;-85
2021/06/13 03:08:46;;;;;;;4.05;2.20;;;;;;;16.01;69.79;98795.09;5113285;28;20031;-85
2021/06/13 03:11:13;;;;;;;2.80;2.13;;;;;;;16.36;68.90;98789.66;5112994;28;20570;-85
2021/06/13 03:13:40;;;;;;;4.72;2.65;;;;;;;16.76;67.70;98794.78;5112846;28;20023;-85
2021/06/13 03:16:07;;;;;;;5.45;1.98;;;;;;;17.20;67.10;98796.53;5112913;28;20050;-84
2021/06/13 03:18:35;;;;;;;3.97;2.27;;;;;;;17.65;65.64;98795.97;5112689;28;20024;-85
2021/06/13 03:21:01;;;;;;;5.07;2.40;;;;;;;18.15;64.28;98788.09;5112836;28;20136;-84
2021/06/13 03:23:30;;;;;;;1.85;1.75;;;;;;;18.65;62.59;98781.69;5113679;28;20032;-84
2021/06/13 03:25:58;;;;;;;2.88;1.70;;;;;;;19.18;60.93;98781.06;5112748;28;20046;-84
2021/06/13 03:28:25;;;;;;;2.60;2.00;;;;;;;19.71;59.84;98780.28;5112414;28;20035;-85
2021/06/13 03:30:52;;;;;;;4.13;1.98;;;;;;;20.21;57.65;98770.84;5112704;28;20083;-85
2021/06/13 03:33:19;;;;;;;1.95;1.80;;;;;;;20.72;56.41;98775.66;5111866;28;20031;-84
2021/06/13 03:35:46;;;;;;;3.58;2.17;;;;;;;21.24;54.79;98781.16;5112279;28;20069;-85
2021/06/13 03:38:13;;;;;;;3.33;1.50;;;;;;;21.73;53.24;98777.19;5112514;28;20059;-85
2021/06/13 03:40:39;;;;;;;2.58;1.35;;;;;;;22.23;51.96;98775.44;5111977;28;20019;-85
2021/06/13 03:43:05;;;;;;;2.42;1.75;;;;;;;22.69;50.79;98773.91;5112075;28;20062;-85
2021/06/13 03:45:30;;;;;;;2.10;1.75;;;;;;;23.14;49.39;98763.31;5112018;28;20059;-85
2021/06/13 03:47:58;;;;;;;2.17;1.98;;;;;;;23.60;48.53;98776.06;5111894;28;20059;-85
2021/06/13 03:50:24;;;;;;;;;;;;;;;24.01;46.91;98759.81;5112444;28;20031;-86
2021/06/13 03:52:50;;;;;;;3.03;1.80;;;;;;;24.42;45.95;98768.00;5112214;28;19908;-86
2021/06/13 03:55:16;;;;;;;3.97;1.58;;;;;;;24.82;45.16;98762.91;5112105;28;20608;-85
2021/06/13 03:57:48;;;;;;;4.28;1.73;;;;;;;25.22;43.78;98758.50;5111688;28;20046;-86
2021/06/13 04:00:15;;;;;;;1.65;1.55;;;;;;;25.57;42.87;98759.91;5112021;28;20417;-85
2021/06/13 04:02:47;;;;;;;4.30;1.50;;;;;;;25.97;42.05;98762.00;5111398;28;20115;-86
2021/06/13 04:05:18;;;;;;;3.22;1.70;;;;;;;26.33;41.11;98762.88;5111857;28;20027;-86
2021/06/13 04:07:44;;;;;;;2.67;1.40;;;;;;;26.66;40.60;98749.22;5111896;28;20036;-86
2021/06/13 04:10:12;;;;;;;3.55;1.52;;;;;;;27.02;39.72;98753.91;5113180;28;20024;-85
2021/06/13 04:12:40;;;;;;;1.75;1.60;;;;;;;27.35;39.12;98752.66;5113181;28;20032;-86
2021/06/13 04:15:07;;;;;;;1.92;1.73;;;;;;;27.56;38.70;98746.34;5111751;28;20028;-86
2021/06/13 04:17:34;;;;;;;3.17;1.75;;;;;;;27.82;37.86;98757.22;5112794;28;20024;-85
2021/06/13 04:20:02;;;;;;;2.65;1.70;;;;;;;28.10;37.74;98759.06;5112025;28;20041;-85
2021/06/13 04:22:28;;;;;;;2.17;1.60;;;;;;;28.36;36.99;98757.72;5111435;28;20114;-85
2021/06/13 04:24:54;;;;;;;5.78;2.00;;;;;;;28.60;36.46;98763.44;5111358;28;20027;-86
2021/06/13 04:27:22;;;;;;;1.35;1.30;;;;;;;28.81;36.31;98759.75;5111285;28;20559;-85
2021/06/13 04:29:48;;;;;;;1.50;1.40;;;;;;;29.08;35.29;98759.88;5111424;28;20023;-85
2021/06/13 04:32:15;;;;;;;5.78;1.80;;;;;;;29.35;35.49;98755.72;5111360;28;20027;-85
2021/06/13 04:34:41;;;;;;;6.25;2.05;;;;;;;29.61;34.57;98753.44;5111057;28;20439;-85
2021/06/13 04:37:08;;;;;;;3.20;1.45;;;;;;;29.84;34.28;98748.00;5112873;28;20040;-86
2021/06/13 04:39:34;;;;;;;1.50;1.40;;;;;;;30.05;34.28;98757.22;5111038;28;20104;-86
2021/06/13 04:42:03;;;;;;;2.22;1.80;;;;;;;30.26;33.76;98756.16;5111775;28;20508;-86
2021/06/13 04:44:28;;;;;;;1.30;1.20;;;;;;;30.46;33.24;98763.72;5110702;28;20019;-86
2021/06/13 04:46:54;;;;;;;1.40;1.30;;;;;;;30.66;32.92;98759.09;5111766;28;20027;-86
2021/06/13 04:49:19;;;;;;;4.00;1.75;;;;;;;30.90;32.63;98761.06;5110772;28;20136;-85
2021/06/13 04:51:49;;;;;;;6.85;2.20;;;;;;;31.11;32.32;98766.22;5111876;28;20034;-86
2021/06/13 04:54:34;;;;;;;3.15;1.77;;;;;;;31.34;32.44;98764.63;5111157;28;20027;-85
2021/06/13 04:57:20;;;;;;;1.60;1.40;;;;;;;31.54;32.00;98753.56;5094961;28;20031;-86
2021/06/13 04:59:45;;;;;;;1.50;1.40;;;;;;;31.71;32.06;98759.19;5094142;28;20027;-83
2021/06/13 05:02:10;;;;;;;1.58;1.48;;;;;;;31.88;31.55;98755.25;5116809;28;20030;-85
2021/06/13 05:04:36;;;;;;;2.47;1.40;;;;;;;32.07;31.07;98759.19;5112993;28;20023;-85
2021/06/13 05:07:03;;;;;;;2.25;2.05;;;;;;;32.24;31.02;98753.72;5112707;28;20035;-85
2021/06/13 05:09:29;;;;;;;1.48;1.38;;;;;;;32.42;30.74;98753.25;5110850;28;20039;-85
2021/06/13 05:11:55;;;;;;;1.70;1.60;;;;;;;32.55;30.70;98750.59;5110961;28;20035;-85
2021/06/13 05:14:20;;;;;;;2.45;1.67;;;;;;;32.65;30.24;98741.22;5110925;28;20024;-86
2021/06/13 05:16:45;;;;;;;1.85;1.75;;;;;;;32.71;30.17;98736.75;5111652;28;20027;-85
2021/06/13 05:19:11;;;;;;;1.83;1.58;;;;;;;32.84;30.46;98744.38;5110712;28;20122;-85
2021/06/13 05:21:38;;;;;;;2.10;1.88;;;;;;;32.96;30.28;98749.19;5110189;28;20031;-85
2021/06/13 05:24:04;;;;;;;2.13;1.90;;;;;;;33.07;29.64;98739.81;5110290;28;20024;-86
2021/06/13 05:26:30;;;;;;;2.78;1.52;;;;;;;33.19;29.46;98742.63;5110527;28;20047;-87
2021/06/13 05:28:56;;;;;;;3.10;1.48;;;;;;;33.33;29.30;98749.78;5110636;28;20403;-86
2021/06/13 05:31:21;;;;;;;1.60;1.50;;;;;;;33.42;29.04;98754.69;5110479;28;20607;-86
2021/06/13 05:33:47;;;;;;;4.03;1.77;;;;;;;33.59;28.86;98758.16;5110278;28;20031;-86
2021/06/13 05:36:12;;;;;;;1.75;1.52;;;;;;;33.76;28.29;98750.53;5110443;28;20117;-86
2021/06/13 05:38:41;;;;;;;1.90;1.80;;;;;;;33.77;28.66;98746.56;5110155;28;20497;-86
2021/06/13 05:41:06;;;;;;;2.25;2.05;;;;;;;33.87;28.77;98752.25;5110440;28;20454;-86
2021/06/13 05:43:31;;;;;;;1.70;1.60;;;;;;;34.02;28.30;98745.06;5110125;28;20054;-87
2021/06/13 05:45:58;;;;;;;2.15;1.90;;;;;;;34.16;27.57;98750.16;5110258;28;20031;-86
2021/06/13 05:48:24;;;;;;;2.50;2.05;;;;;;;34.25;28.05;98748.72;5110254;28;20555;-87
2021/06/13 05:50:50;;;;;;;1.48;1.38;;;;;;;34.22;27.73;98750.38;5110555;28;20035;-87
2021/06/13 05:53:16;;;;;;;2.50;1.65;;;;;;;34.36;27.50;98756.72;5111365;28;20475;-86
2021/06/13 05:55:42;;;;;;;2.53;1.60;;;;;;;34.41;27.31;98740.28;5110006;28;20020;-86
2021/06/13 05:58:07;;;;;;;2.10;2.00;;;;;;;34.54;26.94;98745.81;5113741;28;20058;-87
2021/06/13 06:00:35;;;;;;;1.52;1.42;;;;;;;34.63;27.25;98743.13;5114196;28;20067;-86
2021/06/13 06:03:01;;;;;;;1.98;1.77;;;;;;;34.74;26.82;98740.00;5114238;28;20047;-86
2021/06/13 06:05:27;;;;;;;1.67;1.58;;;;;;;34.81;26.86;98733.41;5115267;28;20469;-86
2021/06/13 06:07:53;;;;;;;3.17;1.63;;;;;;;34.91;26.58;98742.63;5114140;28;20027;-86
2021/06/13 06:10:21;;;;;;;1.77;1.67;;;;;;;34.97;26.49;98735.25;5114082;28;20050;-86
2021/06/13 06:12:46;;;;;;;5.80;4.50;;;;;;;35.04;26.83;98731.47;5113978;28;20506;-86
2021/06/13 06:15:18;;;;;;;1.77;1.67;;;;;;;34.98;26.05;98734.03;5114001;28;20035;-87
2021/06/13 06:17:45;;;;;;;2.35;2.08;;;;;;;34.93;25.76;98726.28;5113599;28;20042;-88
2021/06/13 06:20:12;;;;;;;3.85;2.22;;;;;;;34.83;26.96;98722.63;5113877;28;20038;-87
2021/06/13 06:22:38;;;;;;;1.90;1.75;;;;;;;34.69;26.74;98714.78;5113309;28;20418;-87
2021/06/13 06:25:09;;;;;;;1.90;1.80;;;;;;;34.54;26.72;98718.03;5114951;28;20031;-87
2021/06/13 06:27:35;;;;;;;2.72;1.67;;;;;;;34.40;26.99;98715.72;5113342;28;20024;-86
2021/06/13 06:30:01;;;;;;;2.70;1.77;;;;;;;34.21;27.32;98718.28;5113666;28;20027;-86
2021/06/13 06:32:26;;;;;;;3.78;1.77;;;;;;;33.97;27.74;98715.09;5113685;28;20045;-86
2021/06/13 06:34:51;;;;;;;2.95;1.77;;;;;;;33.68;28.21;98716.72;5113423;28;20080;-86
2021/06/13 06:37:17;;;;;;;2.42;2.00;;;;;;;33.43;28.27;98716.69;5115146;28;20034;-86
2021/06/13 06:39:42;;;;;;;1.98;1.85;;;;;;;33.27;28.87;98711.97;5114235;28;20059;-85
2021/06/13 06:42:08;;;;;;;1.67;1.58;;;;;;;33.08;29.27;98710.88;5113214;28;20481;-87
2021/06/13 06:44:33;;;;;;;17.83;14.45;;;;;;;32.92;30.10;98708.94;5112859;28;20024;-86
2021/06/13 06:47:02;;;;;;;4.32;2.65;;;;;;;32.63;30.02;98709.66;5113366;28;20032;-85
2021/06/13 06:49:29;;;;;;;3.63;3.08;;;;;;;32.49;29.31;98696.97;5113227;28;20024;-88
2021/06/13 06:51:55;;;;;;;4.63;3.10;;;;;;;32.21;29.50;98694.50;5113320;28;20073;-87
2021/06/13 06:54:20;;;;;;;2.92;2.15;;;;;;;31.96;29.61;98691.47;5113222;28;20035;-87
2021/06/13 06:56:45;;;;;;;2.70;2.22;;;;;;;31.76;30.25;98695.88;5112968;28;20070;-87
2021/06/13 06:59:11;;;;;;;3.13;2.10;;;;;;;31.59;30.31;98694.25;5113213;28;20024;-87
2021/06/13 07:01:38;;;;;;;3.38;3.10;;;;;;;31.35;30.77;98693.56;5112839;28;20024;-87
2021/06/13 07:04:04;;;;;;;2.38;2.17;;;;;;;31.06;30.57;98694.13;5113077;28;20027;-88
2021/06/13 07:06:30;;;;;;;2.70;1.88;;;;;;;30.85;30.84;98692.50;5112900;28;20031;-86
2021/06/13 07:08:55;;;;;;;2.97;1.88;;;;;;;30.58;31.21;98698.91;5112054;28;20409;-87
2021/06/13 07:11:20;;;;;;;3.45;2.40;;;;;;;30.37;31.60;98688.97;5112785;28;20024;-87
2021/06/13 07:13:46;;;;;;;4.18;2.20;;;;;;;30.18;32.43;98691.25;5112625;28;20020;-87
2021/06/13 07:16:11;;;;;;;3.90;3.63;;;;;;;29.92;32.44;98698.31;5112912;28;20028;-87
2021/06/13 07:18:37;;;;;;;2.55;2.28;;;;;;;29.70;32.89;98687.59;5112266;28;20509;-87
2021/06/13 07:21:03;;;;;;;3.28;2.97;;;;;;;29.61;34.02;98687.31;5112760;28;20028;-87
2021/06/13 07:23:29;;;;;;;5.25;2.75;;;;;;;29.34;33.83;98680.56;5112340;28;20039;-87
2021/06/13 07:25:54;;;;;;;4.78;4.05;;;;;;;29.16;34.67;98686.28;5112349;28;20036;-86
2021/06/13 07:28:20;;;;;;;3.58;2.95;;;;;;;29.00;34.75;98688.78;5112719;28;20054;-86
2021/06/13 07:30:45;;;;;;;3.75;3.17;;;;;;;28.92;34.74;98677.84;5119324;28;20063;-88
2021/06/13 07:33:11;;;;;;;2.75;2.55;;;;;;;28.91;35.23;98683.78;5115195;28;20115;-87
2021/06/13 07:35:37;;;;;;;7.05;2.78;;;;;;;28.76;35.21;98680.41;5113016;28;20034;-87
2021/06/13 07:38:03;;;;;;;3.10;2.65;;;;;;;28.64;35.55;98676.16;5112975;28;20546;-86
2021/06/13 07:40:30;;;;;;;2.65;2.45;;;;;;;28.56;35.77;98674.66;5112694;28;20103;-86
2021/06/13 07:42:56;;;;;;;2.75;2.50;;;;;;;28.50;35.66;98668.78;5112583;28;20471;-86
2021/06/13 07:45:22;;;;;;;2.90;2.38;;;;;;;28.41;35.34;98666.53;5112342;28;20048;-87
2021/06/13 07:47:48;;;;;;;2.80;2.53;;;;;;;28.30;36.10;98663.09;5112484;28;20126;-86
2021/06/13 07:50:15;;;;;;;3.00;2.80;;;;;;;28.09;36.80;98659.31;5112333;28;20035;-87
2021/06/13 07:52:41;;;;;;;4.18;3.33;;;;;;;28.05;37.07;98666.03;5112063;28;20035;-86
2021/06/13 07:55:08;;;;;;;3.60;2.67;;;;;;;28.02;36.66;98658.56;5112337;28;20027;-87
2021/06/13 07:57:34;;;;;;;3.17;2.83;;;;;;;27.97;36.86;98651.53;5111789;28;20031;-87
2021/06/13 08:00:00;;;;;;;2.67;2.47;;;;;;;27.86;36.60;98648.84;5112248;28;20494;-87
2021/06/13 08:02:26;;;;;;;3.30;3.00;;;;;;;27.82;37.62;98655.56;5111915;28;20110;-88
2021/06/13 08:04:58;;;;;;;4.40;3.30;;;;;;;27.86;37.11;98648.09;5111798;28;20048;-88
2021/06/13 08:07:23;;;;;;;3.30;3.05;;;;;;;27.64;37.54;98648.97;5112234;28;20023;-87
2021/06/13 08:09:49;;;;;;;3.40;2.50;;;;;;;27.55;37.99;98645.13;5111887;28;20039;-87
2021/06/13 08:12:15;;;;;;;3.40;2.88;;;;;;;27.49;38.74;98647.50;5111961;28;20023;-86
2021/06/13 08:14:40;;;;;;;2.55;2.40;;;;;;;27.46;38.34;98656.53;5112980;28;20039;-87
2021/06/13 08:17:06;;;;;;;2.78;2.58;;;;;;;27.40;39.03;98647.91;5111715;28;20020;-87
2021/06/13 08:19:31;;;;;;;3.38;2.70;;;;;;;27.26;39.11;98646.00;5111559;28;20028;-87
2021/06/13 08:21:57;;;;;;;4.72;2.83;;;;;;;27.28;39.35;98637.38;5111431;28;20596;-86
2021/06/13 08:24:22;;;;;;;3.33;2.75;;;;;;;27.25;39.79;98635.44;5111067;28;20093;-87
2021/06/13 08:26:48;;;;;;;4.07;3.67;;;;;;;27.16;39.82;98638.63;5112458;28;20019;-86
2021/06/13 08:29:14;;;;;;;5.78;3.25;;;;;;;27.23;40.31;98644.03;5111466;28;20122;-86
2021/06/13 08:31:39;;;;;;;3.88;3.22;;;;;;;27.31;40.20;98640.09;5111148;28;20036;-85
2021/06/13 08:34:05;;;;;;;3.15;2.90;;;;;;;27.31;39.40;98620.88;5112799;28;20072;-88
2021/06/13 08:36:31;;;;;;;3.88;2.92;;;;;;;27.35;40.12;98623.63;5111413;28;20035;-87
2021/06/13 08:38:57;;;;;;;2.95;2.72;;;;;;;27.41;39.63;98615.78;5110995;28;20039;-87
2021/06/13 08:41:24;;;;;;;3.35;3.05;;;;;;;27.53;40.46;98620.81;5110943;28;20111;-87
2021/06/13 08:43:51;;;;;;;3.33;2.60;;;;;;;27.48;39.54;98615.75;5110783;28;20032;-86
2021/06/13 08:46:17;;;;;;;2.83;2.63;;;;;;;27.56;40.19;98610.97;5110639;28;20043;-87
2021/06/13 08:48:47;;;;;;;4.88;2.40;;;;;;;27.63;39.86;98610.94;5110856;28;20023;-87
2021/06/13 08:51:13;;;;;;;2.75;2.55;;;;;;;27.69;39.22;98608.56;5111057;28;20027;-88
2021/06/13 08:53:44;;;;;;;4.00;3.35;;;;;;;27.75;38.75;98604.97;5110723;28;20027;-88
2021/06/13 08:56:14;;;;;;;2.63;2.42;;;;;;;27.86;39.27;98595.88;5110862;28;20028;-88
2021/06/13 08:58:40;;;;;;;3.47;2.45;;;;;;;27.91;39.19;98587.97;5110660;28;20027;-86
2021/06/13 09:01:06;;;;;;;3.55;2.95;;;;;;;27.91;38.62;98598.97;5110852;28;20493;-87
2021/06/13 09:03:33;;;;;;;5.50;2.10;;;;;;;28.00;38.19;98592.22;5110769;28;20092;-86
2021/06/13 09:05:59;;;;;;;3.20;2.92;;;;;;;28.06;37.61;98585.94;5110243;28;20031;-86
2021/06/13 09:08:35;;;;;;;3.17;2.90;;;;;;;28.13;37.65;98579.59;5111762;28;20039;-87
2021/06/13 09:11:01;;;;;;;2.92;2.50;;;;;;;28.16;38.19;98584.28;5110369;28;20046;-87
2021/06/13 09:13:28;;;;;;;3.08;2.78;;;;;;;28.27;37.98;98582.19;5110308;28;20028;-87
2021/06/13 09:16:01;;;;;;;4.72;3.08;;;;;;;28.32;37.71;98572.75;5111273;28;20043;-86
2021/06/13 09:18:30;;;;;;;3.60;2.75;;;;;;;28.38;37.35;98571.09;5110741;28;20024;-89
2021/06/13 09:20:57;;;;;;;3.47;2.67;;;;;;;28.43;37.00;98573.41;5110479;28;20024;-89
2021/06/13 09:23:22;;;;;;;4.13;2.85;;;;;;;28.41;37.04;98569.50;5109987;28;20063;-88
2021/06/13 09:25:57;;;;;;;3.20;2.90;;;;;;;28.41;36.96;98564.78;5110121;28;20058;-87
2021/06/13 09:28:23;;;;;;;3.83;3.30;;;;;;;28.41;37.40;98561.25;5110415;28;20490;-88
2021/06/13 09:30:51;;;;;;;3.47;2.92;;;;;;;28.45;38.14;98556.47;5111318;28;20080;-86
2021/06/13 09:33:32;;;;;;;2.92;2.72;;;;;;;28.46;37.28;98551.78;5110371;28;20057;-87
2021/06/13 09:36:00;;;;;;;2.90;2.70;;;;;;;28.44;38.28;98560.41;5110048;28;20126;-88
2021/06/13 09:38:44;;;;;;;3.55;2.72;;;;;;;28.46;36.39;98549.03;5110318;28;20038;-88
2021/06/13 09:41:17;;;;;;;3.50;2.60;;;;;;;28.51;36.12;98549.34;5110982;28;20560;-89
2021/06/13 09:44:04;;;;;;;2.00;1.90;;;;;;;28.53;35.15;98541.47;5110017;28;20413;-89
2021/06/13 09:46:34;;;;;;;3.20;2.45;;;;;;;28.54;35.70;98536.75;5110535;28;20126;-89
2021/06/13 09:49:04;;;;;;;2.63;2.42;;;;;;;28.54;36.39;98531.25;5110078;28;20040;-89
2021/06/13 09:51:34;;;;;;;2.58;2.38;;;;;;;28.57;36.14;98538.69;5110262;28;20110;-88
2021/06/13 09:54:05;;;;;;;2.88;2.35;;;;;;;28.52;35.84;98539.13;5109904;28;20118;-87
2021/06/13 09:56:33;;;;;;;4.30;2.85;;;;;;;28.47;36.71;98534.09;5109723;28;20115;-88
2021/06/13 09:59:11;;;;;;;3.17;2.88;;;;;;;28.47;35.86;98536.84;5114008;28;20084;-90
2021/06/13 10:01:39;;;;;;;4.22;3.10;;;;;;;28.46;36.80;98530.56;5112669;28;20023;-89
2021/06/13 10:04:28;;;;;;;2.78;2.58;;;;;;;28.38;36.77;98520.81;5110477;28;20050;-89
2021/06/13 10:07:15;;;;;;;2.88;2.67;;;;;;;28.41;37.74;98520.00;5110094;28;20051;-89
2021/06/13 10:09:45;;;;;;;2.90;2.63;;;;;;;28.47;37.32;98523.09;5095211;28;20104;-90
2021/06/13 10:12:15;;;;;;;2.45;2.25;;;;;;;28.47;35.90;98512.09;5110214;28;20575;-89
2021/06/13 10:14:40;;;;;;;4.55;2.50;;;;;;;28.51;37.30;98510.06;5109897;28;20035;-89
2021/06/13 10:17:08;;;;;;;2.75;2.38;;;;;;;28.58;36.24;98510.75;5109970;28;20030;-89
2021/06/13 10:19:37;;;;;;;2.20;2.03;;;;;;;28.64;35.25;98510.31;5109998;28;20505;-90
2021/06/13 10:22:03;;;;;;;2.53;2.33;;;;;;;28.65;36.34;98503.59;5109935;28;20028;-89
2021/06/13 10:24:37;;;;;;;3.65;2.63;;;;;;;28.70;35.79;98500.44;5109673;28;20546;-89
2021/06/13 10:27:21;;;;;;;4.78;2.95;;;;;;;28.77;34.52;98505.06;5109858;28;20028;-89
2021/06/13 10:29:49;;;;;;;6.30;3.88;;;;;;;28.81;34.40;98494.78;5109900;28;20032;-89
2021/06/13 10:32:17;;;;;;;2.20;2.00;;;;;;;28.83;33.14;98506.16;5110083;28;20067;-88
2021/06/13 10:34:43;;;;;;;2.22;2.13;;;;;;;28.86;32.85;98494.34;5109736;28;20027;-88
2021/06/13 10:37:11;;;;;;;2.20;2.08;;;;;;;28.92;34.42;98498.19;5110019;28;20104;-89
2021/06/13 10:39:38;;;;;;;2.72;2.53;;;;;;;28.94;33.80;98498.53;5109908;28;20084;-90
2021/06/13 10:42:09;;;;;;;2.35;2.15;;;;;;;28.96;33.85;98495.41;5109763;28;20454;-90
2021/06/13 10:44:44;;;;;;;2.75;2.55;;;;;;;28.97;33.49;98494.22;5112258;28;20393;-90
2021/06/13 10:47:11;;;;;;;2.85;2.35;;;;;;;29.00;33.70;98482.34;5114114;28;20051;-90
2021/06/13 10:49:47;;;;;;;2.88;2.30;;;;;;;29.01;34.57;98484.69;5113879;28;20379;-89
2021/06/13 10:52:19;;;;;;;1.98;1.88;;;;;;;28.95;33.48;98482.81;5114081;28;20031;-90
2021/06/13 10:54:53;;;;;;;5.97;3.67;;;;;;;28.92;33.74;98481.69;5113287;28;20020;-89
2021/06/13 10:57:19;;;;;;;4.40;3.15;;;;;;;28.91;35.25;98482.88;5113376;28;20033;-89
2021/06/13 10:59:46;;;;;;;3.38;2.70;;;;;;;28.88;35.45;98486.44;5113208;28;20024;-90
2021/06/13 11:02:14;;;;;;;2.40;2.28;;;;;;;28.81;34.98;98479.06;5113203;28;20063;-89
2021/06/13 11:04:58;;;;;;;3.58;2.60;;;;;;;28.78;35.08;98482.63;5113524;28;20508;-87
2021/06/13 11:07:29;;;;;;;2.75;2.33;;;;;;;28.71;35.95;98490.97;5113353;28;20123;-89
2021/06/13 11:10:05;;;;;;;2.97;2.78;;;;;;;28.68;36.04;98489.03;5112956;28;20027;-88
2021/06/13 11:12:47;;;;;;;3.22;2.67;;;;;;;28.56;35.50;98495.84;5113098;28;20031;-88
2021/06/13 11:15:16;;;;;;;2.70;2.50;;;;;;;28.45;35.93;98495.97;5114329;28;20144;-89
2021/06/13 11:17:52;;;;;;;3.30;3.08;;;;;;;28.37;36.19;98494.50;5112791;28;20031;-89
2021/06/13 11:20:27;;;;;;;3.22;2.92;;;;;;;28.32;36.27;98503.19;5112959;28;20047;-88
2021/06/13 11:22:52;;;;;;;2.72;2.53;;;;;;;28.24;36.00;98495.03;5112327;28;20027;-89
2021/06/13 11:25:20;;;;;;;4.28;2.60;;;;;;;28.14;35.81;98492.38;5112579;28;20051;-89
2021/06/13 11:28:11;;;;;;;3.05;2.85;;;;;;;27.98;36.71;98506.66;5112668;28;20032;-87
2021/06/13 11:30:42;;;;;;;4.85;2.72;;;;;;;27.87;36.90;98495.75;5112664;28;20034;-88
2021/06/13 11:33:08;;;;;;;3.40;3.10;;;;;;;27.72;37.27;98497.84;5112444;28;20054;-90
2021/06/13 11:35:37;;;;;;;4.40;3.17;;;;;;;27.56;37.73;98495.63;5112755;28;20176;-90
2021/06/13 11:38:08;;;;;;;4.65;2.60;;;;;;;27.38;38.16;98509.47;5112223;28;20035;-88
2021/06/13 11:40:36;;;;;;;3.90;2.55;;;;;;;26.97;41.09;98495.19;5112379;28;20027;-86